Time;durP1;ratioP1;P1;durP2;ratioP2;P2;SDS_P1;SDS_P2;PMS_P1;PMS_P2;Temp;Humidity;BMP_temperature;BMP_pressure;BME280_temperature;BME280_humidity;BME280_pressure;Samples;Min_cycle;Max_cycle;Signal;HPM_P1;HPM_P2
2023/12/17 00:00:29;;;;;;;178.30;48.42;;;;;;;1.40;98.53;100307.16;5066668;28;20199;-72
2023/12/17 00:02:55;;;;;;;92.75;36.63;;;;;;;1.44;98.46;100306.88;5066626;28;20289;-73
2023/12/17 00:05:22;;;;;;;53.78;33.63;;;;;;;1.49;97.90;100298.63;5063495;28;20230;-73
2023/12/17 00:07:48;;;;;;;235.23;52.25;;;;;;;1.21;98.11;100307.34;5063965;28;20270;-72
2023/12/17 00:10:15;;;;;;;172.30;45.22;;;;;;;1.04;98.71;100310.97;5064082;28;20196;-73
2023/12/17 00:12:42;;;;;;;94.25;36.72;;;;;;;1.15;99.31;100307.69;5064307;28;20195;-73
2023/12/17 00:15:09;;;;;;;209.73;44.78;;;;;;;1.15;98.90;100315.69;5065097;28;20700;-73
2023/12/17 00:17:37;;;;;;;67.78;34.42;;;;;;;1.25;98.40;100324.91;5062719;28;20207;-73
2023/12/17 00:20:04;;;;;;;103.63;43.97;;;;;;;1.13;98.40;100331.78;5064004;28;20200;-72
2023/12/17 00:22:31;;;;;;;44.75;34.00;;;;;;;1.31;97.92;100325.38;5063426;28;20201;-72
2023/12/17 00:24:57;;;;;;;66.25;41.10;;;;;;;1.34;98.45;100329.69;5064753;28;20686;-72
2023/12/17 00:27:24;;;;;;;42.03;32.25;;;;;;;1.34;97.89;100327.88;5047373;28;20209;-72
2023/12/17 00:29:51;;;;;;;33.00;28.75;;;;;;;1.38;97.86;100320.56;5048395;28;20286;-72
2023/12/17 00:32:17;;;;;;;111.25;42.83;;;;;;;1.35;97.82;100321.59;5063740;28;20200;-72
2023/12/17 00:34:45;;;;;;;87.68;40.45;;;;;;;1.34;98.05;100327.03;5064539;28;20199;-71
2023/12/17 00:37:13;;;;;;;65.55;30.85;;;;;;;1.35;98.22;100324.28;5059708;28;20552;-72
2023/12/17 00:39:39;;;;;;;36.33;26.23;;;;;;;1.41;97.93;100325.72;5063841;28;20208;-72
2023/12/17 00:42:06;;;;;;;28.50;25.48;;;;;;;1.56;97.03;100330.19;5062720;28;20207;-72
2023/12/17 00:44:32;;;;;;;30.17;27.08;;;;;;;1.69;95.87;100330.31;5045722;28;20650;-71
2023/12/17 00:46:59;;;;;;;72.47;36.70;;;;;;;1.71;95.36;100322.22;5063359;28;20222;-72
2023/12/17 00:49:26;;;;;;;62.50;39.10;;;;;;;1.47;96.05;100319.19;5081636;28;20204;-73
2023/12/17 00:51:54;;;;;;;126.40;44.28;;;;;;;1.41;96.67;100314.19;5063965;28;20536;-72
2023/12/17 00:54:20;;;;;;;114.60;36.83;;;;;;;1.37;96.48;100312.66;5063729;28;20227;-72
2023/12/17 00:56:47;;;;;;;26.75;23.50;;;;;;;1.46;95.86;100318.34;5082222;28;20207;-72
2023/12/17 00:59:14;;;;;;;28.88;25.45;;;;;;;1.32;95.98;100311.09;5046564;28;20203;-72
2023/12/17 01:01:40;;;;;;;60.92;28.70;;;;;;;1.32;95.33;100310.25;5065009;28;20199;-72
2023/12/17 01:04:07;;;;;;;132.57;35.17;;;;;;;1.24;95.91;100312.50;5082021;28;20209;-72
2023/12/17 01:06:33;;;;;;;198.63;46.15;;;;;;;1.08;95.91;100320.50;5063872;28;20701;-72
2023/12/17 01:09:02;;;;;;;212.13;44.40;;;;;;;1.07;96.09;100324.13;5081295;28;20539;-72
2023/12/17 01:11:28;;;;;;;138.38;42.30;;;;;;;1.04;96.11;100326.94;5063971;28;20207;-72
2023/12/17 01:13:55;;;;;;;97.68;33.15;;;;;;;1.15;95.91;100327.22;5080325;28;20210;-72
2023/12/17 01:16:22;;;;;;;96.13;34.00;;;;;;;1.10;95.60;100334.63;5060400;28;20565;-73
2023/12/17 01:18:49;;;;;;;129.90;37.05;;;;;;;0.90;96.64;100332.22;5066410;28;20204;-73
2023/12/17 01:21:15;;;;;;;76.50;30.80;;;;;;;1.10;96.22;100334.63;5062361;28;20210;-73
2023/12/17 01:23:42;;;;;;;51.70;27.45;;;;;;;0.93;96.48;100337.38;5063704;28;20203;-73
2023/12/17 01:26:18;;;;;;;110.30;34.13;;;;;;;0.73;97.15;100332.25;5068764;28;20755;-72
2023/12/17 01:28:44;;;;;;;47.97;27.02;;;;;;;0.72;98.12;100335.84;5046289;28;20192;-72
2023/12/17 01:31:11;;;;;;;112.25;34.63;;;;;;;0.70;98.03;100349.25;5047149;28;20192;-72
2023/12/17 01:33:38;;;;;;;294.95;49.88;;;;;;;0.51;98.43;100344.06;5060264;28;20307;-72
2023/12/17 01:36:04;;;;;;;183.10;41.78;;;;;;;0.50;98.09;100342.34;5044953;28;20204;-72
2023/12/17 01:38:31;;;;;;;209.55;44.10;;;;;;;0.39;98.45;100350.03;5030902;28;20199;-72
2023/12/17 01:40:57;;;;;;;226.75;44.30;;;;;;;0.29;98.41;100338.19;5077948;28;20200;-72
2023/12/17 01:43:25;;;;;;;227.35;44.78;;;;;;;0.17;98.54;100336.16;5060549;28;20691;-72
2023/12/17 01:45:53;;;;;;;116.43;32.17;;;;;;;0.24;98.61;100332.22;5081181;28;20930;-73
2023/12/17 01:48:20;;;;;;;44.10;22.40;;;;;;;0.20;98.11;100338.66;5053005;28;20210;-72
2023/12/17 01:50:46;;;;;;;121.22;38.13;;;;;;;0.16;98.20;100335.28;5060817;28;20192;-72
2023/12/17 01:53:13;;;;;;;73.55;25.58;;;;;;;0.10;97.87;100348.03;5061244;28;20212;-72
2023/12/17 01:55:40;;;;;;;58.17;25.13;;;;;;;0.15;97.61;100346.00;5063380;28;20304;-72
2023/12/17 01:58:07;;;;;;;142.07;32.53;;;;;;;0.00;97.32;100347.69;5063076;28;20208;-72
2023/12/17 02:00:36;;;;;;;132.10;29.95;;;;;;;-0.08;97.91;100349.88;5052882;28;20210;-71
2023/12/17 02:03:04;;;;;;;194.27;36.22;;;;;;;-0.33;98.10;100344.06;5061400;28;20217;-72
2023/12/17 02:05:32;;;;;;;156.32;33.33;;;;;;;-0.33;98.41;100346.72;5061560;28;20572;-72
2023/12/17 02:07:59;;;;;;;154.85;33.45;;;;;;;-0.27;98.28;100344.59;5062351;28;20279;-72
2023/12/17 02:10:25;;;;;;;128.25;35.20;;;;;;;-0.38;98.67;100352.28;5045512;28;20207;-72
2023/12/17 02:12:52;;;;;;;54.67;25.85;;;;;;;-0.26;98.65;100345.47;5044847;28;20215;-73
2023/12/17 02:15:19;;;;;;;91.85;28.48;;;;;;;-0.33;98.35;100344.94;5061643;28;20203;-73
2023/12/17 02:17:47;;;;;;;114.20;34.45;;;;;;;-0.46;98.50;100343.81;5061651;28;20200;-72
2023/12/17 02:20:14;;;;;;;127.75;32.97;;;;;;;-0.65;99.38;100348.31;5061972;28;20200;-71
2023/12/17 02:22:40;;;;;;;85.95;27.40;;;;;;;-0.50;99.67;100343.09;5063319;28;20196;-72
2023/12/17 02:25:10;;;;;;;93.05;31.20;;;;;;;-0.41;99.07;100336.47;5060976;28;20201;-72
2023/12/17 02:27:36;;;;;;;109.03;33.50;;;;;;;-0.55;98.61;100339.78;5061534;28;20216;-72
2023/12/17 02:30:04;;;;;;;150.55;36.13;;;;;;;-0.65;98.70;100348.31;5062057;28;20563;-71
2023/12/17 02:32:31;;;;;;;59.63;26.33;;;;;;;-0.53;98.87;100355.69;5063571;28;20247;-72
2023/12/17 02:34:59;;;;;;;94.32;31.40;;;;;;;-0.59;98.94;100363.94;5043208;28;20223;-72
2023/12/17 02:37:25;;;;;;;59.30;25.83;;;;;;;-0.39;98.24;100356.72;5064341;28;20196;-72
2023/12/17 02:39:52;;;;;;;111.53;34.67;;;;;;;-0.63;98.33;100362.38;5052103;28;20550;-72
2023/12/17 02:42:21;;;;;;;157.07;40.15;;;;;;;-0.76;99.17;100340.84;5077376;28;20207;-72
2023/12/17 02:44:48;;;;;;;114.97;33.53;;;;;;;-0.68;99.86;100336.91;5064893;28;20638;-71
2023/12/17 02:47:15;;;;;;;189.88;43.40;;;;;;;-0.81;99.96;100335.75;5062929;28;20222;-72
2023/12/17 02:49:41;;;;;;;148.15;39.10;;;;;;;-0.61;100.00;100331.25;5079591;28;20211;-71
2023/12/17 02:52:08;;;;;;;94.82;34.00;;;;;;;-0.59;100.00;100327.59;5048692;28;20224;-70
2023/12/17 02:54:35;;;;;;;152.60;40.88;;;;;;;-0.62;100.00;100335.72;5065222;28;20567;-71
2023/12/17 02:57:01;;;;;;;166.45;40.38;;;;;;;-0.63;100.00;100341.97;5066118;28;20200;-70
2023/12/17 02:59:29;;;;;;;118.32;39.60;;;;;;;-0.59;100.00;100337.34;5064636;28;20282;-71
2023/12/17 03:01:56;;;;;;;151.02;39.92;;;;;;;-0.59;100.00;100337.34;5048239;28;20304;-70
2023/12/17 03:04:23;;;;;;;79.70;36.92;;;;;;;-0.46;100.00;100327.84;5066867;28;20207;-71
2023/12/17 03:06:50;;;;;;;129.68;39.00;;;;;;;-0.42;100.00;100330.28;5050270;28;20247;-72
2023/12/17 03:09:17;;;;;;;166.63;42.92;;;;;;;-0.47;100.00;100315.50;5084686;28;20200;-71
2023/12/17 03:11:43;;;;;;;101.93;35.80;;;;;;;-0.29;100.00;100321.66;5067715;28;20195;-71
2023/12/17 03:14:10;;;;;;;135.38;41.35;;;;;;;-0.41;100.00;100323.16;5064119;28;20274;-71
2023/12/17 03:16:38;;;;;;;75.35;42.05;;;;;;;-0.44;100.00;100315.34;5082546;28;20609;-71
2023/12/17 03:19:05;;;;;;;44.88;32.75;;;;;;;-0.17;100.00;100313.94;5064552;28;20215;-71
2023/12/17 03:21:31;;;;;;;84.63;44.13;;;;;;;-0.33;100.00;100307.69;5065292;28;20570;-71
2023/12/17 03:23:58;;;;;;;52.53;34.38;;;;;;;-0.31;100.00;100305.78;5048351;28;20212;-71
2023/12/17 03:26:25;;;;;;;56.60;38.17;;;;;;;-0.18;100.00;100300.72;5063906;28;20584;-70
2023/12/17 03:28:51;;;;;;;127.03;47.38;;;;;;;-0.34;100.00;100290.00;5079333;28;20204;-71
2023/12/17 03:31:18;;;;;;;104.82;40.13;;;;;;;-0.41;100.00;100296.56;5065525;28;20197;-71
2023/12/17 03:33:47;;;;;;;64.80;40.92;;;;;;;-0.46;100.00;100290.63;5098050;28;20828;-70
2023/12/17 03:36:15;;;;;;;65.18;39.78;;;;;;;-0.42;100.00;100292.19;5059804;28;20196;-72
2023/12/17 03:38:42;;;;;;;51.13;37.95;;;;;;;-0.38;100.00;100283.97;5081278;28;20211;-71
2023/12/17 03:41:20;;;;;;;53.55;36.38;;;;;;;-0.29;100.00;100285.28;5083441;28;20193;-71
2023/12/17 03:43:47;;;;;;;49.22;35.35;;;;;;;-0.38;100.00;100276.00;5038550;28;20204;-70
2023/12/17 03:46:14;;;;;;;45.45;35.85;;;;;;;-0.44;100.00;100267.47;5065047;28;20224;-70
2023/12/17 03:48:41;;;;;;;44.60;32.38;;;;;;;-0.28;100.00;100275.50;5062995;28;20207;-70
2023/12/17 03:51:13;;;;;;;46.10;33.60;;;;;;;-0.25;100.00;100270.88;5063310;28;20234;-71
2023/12/17 03:53:40;;;;;;;41.95;32.95;;;;;;;-0.08;100.00;100270.91;5062364;28;20287;-72
2023/12/17 03:56:09;;;;;;;48.60;36.45;;;;;;;-0.14;100.00;100281.84;5065212;28;20204;-72
2023/12/17 03:58:35;;;;;;;46.25;35.92;;;;;;;-0.25;100.00;100278.88;5047474;28;20196;-73
2023/12/17 04:01:03;;;;;;;46.47;34.55;;;;;;;-0.19;100.00;100278.56;5063572;28;20240;-72
2023/12/17 04:03:29;;;;;;;45.42;32.80;;;;;;;-0.20;100.00;100279.50;5062539;28;20643;-72
2023/12/17 04:05:57;;;;;;;39.78;32.08;;;;;;;-0.14;100.00;100276.53;5062537;28;20269;-72
2023/12/17 04:08:25;;;;;;;45.72;34.80;;;;;;;-0.04;100.00;100268.94;5065249;28;20279;-72
2023/12/17 04:10:52;;;;;;;42.05;33.83;;;;;;;-0.08;100.00;100280.69;5045480;28;20238;-71
2023/12/17 04:13:18;;;;;;;38.85;33.38;;;;;;;-0.06;100.00;100265.50;5065000;28;20204;-72
2023/12/17 04:15:45;;;;;;;36.95;29.98;;;;;;;-0.21;100.00;100267.13;5061528;28;20209;-72
2023/12/17 04:18:13;;;;;;;41.92;32.05;;;;;;;-0.22;100.00;100272.53;5066629;28;20200;-72
2023/12/17 04:20:39;;;;;;;39.15;31.80;;;;;;;-0.21;100.00;100264.47;5063581;28;20203;-72
2023/12/17 04:23:06;;;;;;;39.50;31.63;;;;;;;-0.21;100.00;100269.78;5048008;28;20557;-72
2023/12/17 04:25:34;;;;;;;39.55;29.55;;;;;;;-0.11;100.00;100268.38;5064819;28;20207;-69
2023/12/17 04:28:00;;;;;;;41.78;30.67;;;;;;;-0.11;100.00;100271.06;5080917;28;20701;-71
2023/12/17 04:30:27;;;;;;;43.08;34.47;;;;;;;-0.20;100.00;100274.19;5061816;28;20215;-71
2023/12/17 04:32:53;;;;;;;37.67;31.48;;;;;;;-0.02;100.00;100273.25;5064048;28;20598;-71
2023/12/17 04:35:20;;;;;;;37.25;32.38;;;;;;;-0.15;100.00;100273.94;5082436;28;20200;-71
2023/12/17 04:37:46;;;;;;;44.85;31.20;;;;;;;-0.07;100.00;100272.63;5080535;28;20498;-71
2023/12/17 04:40:14;;;;;;;36.60;29.58;;;;;;;-0.06;100.00;100265.50;5079514;28;20865;-71
2023/12/17 04:42:42;;;;;;;32.70;28.00;;;;;;;-0.04;100.00;100267.13;5064566;28;20282;-71
2023/12/17 04:45:09;;;;;;;38.10;30.15;;;;;;;-0.07;100.00;100256.66;5063220;28;20196;-71
2023/12/17 04:47:36;;;;;;;38.95;30.25;;;;;;;-0.15;100.00;100269.47;5063919;28;20257;-71
2023/12/17 04:50:06;;;;;;;40.95;33.42;;;;;;;0.03;100.00;100264.13;5062217;28;20219;-72
2023/12/17 04:52:32;;;;;;;59.78;31.95;;;;;;;-0.07;100.00;100264.63;5063159;28;20199;-71
2023/12/17 04:54:59;;;;;;;36.92;30.73;;;;;;;-0.05;100.00;100259.22;5064173;28;20215;-70
2023/12/17 04:57:25;;;;;;;37.45;30.95;;;;;;;0.06;100.00;100266.63;5080165;28;20669;-71
2023/12/17 04:59:56;;;;;;;37.28;31.10;;;;;;;0.11;100.00;100264.59;5080743;28;20613;-71
2023/12/17 05:02:22;;;;;;;36.15;29.67;;;;;;;0.18;100.00;100261.53;5062702;28;20204;-71
2023/12/17 05:04:49;;;;;;;38.08;30.85;;;;;;;0.10;99.82;100273.50;5062988;28;20196;-71
2023/12/17 05:07:16;;;;;;;30.38;26.85;;;;;;;-0.01;100.00;100259.00;5062232;28;20219;-71
2023/12/17 05:09:43;;;;;;;35.83;29.48;;;;;;;-0.08;100.00;100260.25;5045106;28;20203;-70
2023/12/17 05:12:10;;;;;;;36.22;29.45;;;;;;;-0.03;100.00;100252.88;5046283;28;20253;-70
2023/12/17 05:14:36;;;;;;;35.72;28.60;;;;;;;-0.03;100.00;100239.59;5061910;28;20207;-71
2023/12/17 05:17:04;;;;;;;28.77;25.55;;;;;;;0.08;100.00;100246.97;5061571;28;20557;-71
2023/12/17 05:19:31;;;;;;;36.85;29.63;;;;;;;-0.09;100.00;100245.22;5080415;28;20192;-70
2023/12/17 05:21:58;;;;;;;30.95;26.88;;;;;;;-0.13;100.00;100238.34;5062367;28;20199;-70
2023/12/17 05:24:25;;;;;;;33.80;28.42;;;;;;;-0.05;100.00;100244.13;5063583;28;20203;-71
2023/12/17 05:26:51;;;;;;;36.00;27.27;;;;;;;-0.16;100.00;100246.47;5064768;28;20235;-70
2023/12/17 05:29:17;;;;;;;36.35;28.42;;;;;;;-0.27;100.00;100237.31;5059962;28;20209;-71
2023/12/17 05:31:44;;;;;;;36.30;28.63;;;;;;;-0.26;100.00;100234.59;5079213;28;20207;-70
2023/12/17 05:34:12;;;;;;;35.92;30.95;;;;;;;-0.18;100.00;100224.41;5060105;28;20197;-70
2023/12/17 05:36:39;;;;;;;35.20;27.92;;;;;;;-0.19;100.00;100225.34;5054716;28;20196;-71
2023/12/17 05:39:07;;;;;;;32.15;27.58;;;;;;;-0.18;100.00;100227.06;5058373;28;20219;-70
2023/12/17 05:41:33;;;;;;;38.08;28.50;;;;;;;-0.19;100.00;100233.34;5060049;28;20206;-70
2023/12/17 05:44:00;;;;;;;29.70;24.33;;;;;;;-0.18;100.00;100224.41;5062192;28;20287;-71
2023/12/17 05:46:27;;;;;;;37.60;30.08;;;;;;;-0.29;100.00;100249.84;5063286;28;20202;-71
2023/12/17 05:48:53;;;;;;;25.73;22.30;;;;;;;-0.20;100.00;100242.25;5060973;28;20275;-71
2023/12/17 05:51:21;;;;;;;29.52;25.65;;;;;;;-0.25;100.00;100246.94;5058425;28;20208;-71
2023/12/17 05:53:48;;;;;;;30.02;26.83;;;;;;;-0.21;100.00;100248.50;5062477;28;20207;-70
2023/12/17 05:56:14;;;;;;;33.92;27.00;;;;;;;-0.23;100.00;100249.53;5063612;28;20645;-71
2023/12/17 05:58:41;;;;;;;30.70;27.45;;;;;;;-0.16;100.00;100235.84;5062476;28;20287;-70
2023/12/17 06:01:08;;;;;;;31.38;27.98;;;;;;;-0.14;100.00;100255.25;5044041;28;20204;-70
2023/12/17 06:03:35;;;;;;;36.33;28.48;;;;;;;-0.12;100.00;100253.38;5061179;28;20196;-71
2023/12/17 06:06:01;;;;;;;32.03;28.02;;;;;;;-0.06;100.00;100252.19;5063963;28;20227;-71
2023/12/17 06:08:30;;;;;;;34.70;28.92;;;;;;;-0.04;100.00;100259.16;5079663;28;20330;-70
2023/12/17 06:10:58;;;;;;;33.88;28.55;;;;;;;-0.08;100.00;100260.25;5062576;28;20207;-71
2023/12/17 06:13:24;;;;;;;34.97;27.42;;;;;;;-0.11;100.00;100259.53;5063474;28;20203;-70
2023/12/17 06:15:52;;;;;;;29.70;23.48;;;;;;;-0.07;99.36;100259.31;5062800;28;20302;-70
2023/12/17 06:18:18;;;;;;;28.67;25.48;;;;;;;-0.04;99.57;100256.50;5080146;28;20591;-70
2023/12/17 06:20:45;;;;;;;32.78;25.65;;;;;;;0.04;99.08;100264.03;5079203;28;20204;-71
2023/12/17 06:23:12;;;;;;;27.55;24.17;;;;;;;0.04;98.97;100263.19;5061920;28;20648;-71
2023/12/17 06:25:40;;;;;;;25.50;22.45;;;;;;;0.00;98.91;100257.19;5042417;28;20225;-71
2023/12/17 06:28:06;;;;;;;27.63;23.08;;;;;;;-0.01;98.93;100261.66;5063536;28;20245;-70
2023/12/17 06:30:33;;;;;;;31.70;25.27;;;;;;;-0.18;99.38;100253.69;5068121;28;20537;-71
2023/12/17 06:33:00;;;;;;;30.52;25.23;;;;;;;-0.21;99.81;100258.28;5061908;28;20199;-71
2023/12/17 06:35:26;;;;;;;34.53;25.00;;;;;;;-0.23;100.00;100254.84;5062171;28;20733;-71
2023/12/17 06:37:53;;;;;;;23.52;20.27;;;;;;;-0.09;99.49;100263.84;5059489;28;20210;-70
2023/12/17 06:40:19;;;;;;;30.45;24.23;;;;;;;-0.07;99.24;100264.63;5052084;28;20556;-72
2023/12/17 06:42:47;;;;;;;29.80;24.48;;;;;;;-0.14;99.76;100265.88;5067947;28;20546;-69
2023/12/17 06:45:14;;;;;;;34.58;26.00;;;;;;;-0.24;100.00;100267.28;5078424;28;20218;-69
2023/12/17 06:47:41;;;;;;;29.52;23.80;;;;;;;-0.14;99.80;100268.53;5041376;28;20228;-68
2023/12/17 06:50:08;;;;;;;30.52;24.15;;;;;;;-0.14;99.68;100255.25;5078497;28;20200;-69
2023/12/17 06:52:35;;;;;;;25.80;21.73;;;;;;;-0.21;99.76;100255.63;5078746;28;20203;-69
2023/12/17 06:55:01;;;;;;;28.42;23.15;;;;;;;-0.35;100.00;100262.53;5058970;28;20207;-68
2023/12/17 06:57:28;;;;;;;27.00;21.90;;;;;;;-0.29;100.00;100261.34;5072281;28;20209;-72
2023/12/17 06:59:56;;;;;;;25.40;22.30;;;;;;;-0.21;99.89;100269.78;5074705;28;20200;-70
2023/12/17 07:02:22;;;;;;;28.33;23.60;;;;;;;-0.25;100.00;100278.88;5078731;28;21240;-69
2023/12/17 07:04:48;;;;;;;28.70;23.20;;;;;;;-0.28;100.00;100273.72;5079740;28;20699;-68
2023/12/17 07:07:15;;;;;;;28.52;24.38;;;;;;;-0.25;100.00;100270.03;5072733;28;20226;-70
2023/12/17 07:09:41;;;;;;;32.28;25.70;;;;;;;-0.28;100.00;100273.72;5061956;28;20204;-69
2023/12/17 07:12:09;;;;;;;30.48;24.25;;;;;;;-0.25;100.00;100262.91;5076599;28;20215;-69
2023/12/17 07:14:36;;;;;;;26.65;23.75;;;;;;;-0.27;99.74;100253.28;5077603;28;20729;-69
2023/12/17 07:17:04;;;;;;;23.73;21.15;;;;;;;-0.27;100.00;100254.16;5077315;28;20257;-69
2023/12/17 07:19:31;;;;;;;28.23;24.80;;;;;;;-0.29;99.65;100255.16;5077852;28;20210;-69
2023/12/17 07:21:57;;;;;;;29.42;23.52;;;;;;;-0.19;99.28;100257.28;5079762;28;20200;-69
2023/12/17 07:24:24;;;;;;;31.45;24.27;;;;;;;-0.24;98.97;100254.00;5078059;28;20695;-70
2023/12/17 07:26:51;;;;;;;35.15;24.88;;;;;;;-0.30;99.20;100251.63;5078600;28;20208;-69
2023/12/17 07:29:17;;;;;;;26.02;21.80;;;;;;;-0.37;99.59;100252.91;5079101;28;20204;-69
2023/12/17 07:31:44;;;;;;;31.92;24.98;;;;;;;-0.46;100.00;100242.75;5082168;28;20211;-69
2023/12/17 07:34:12;;;;;;;26.83;22.45;;;;;;;-0.34;100.00;100247.44;5076773;28;20200;-69
2023/12/17 07:36:39;;;;;;;31.52;24.65;;;;;;;-0.31;100.00;100247.25;5080767;28;20581;-69
2023/12/17 07:39:06;;;;;;;30.45;24.55;;;;;;;-0.27;100.00;100254.16;5081955;28;20203;-70
2023/12/17 07:41:33;;;;;;;28.85;23.73;;;;;;;-0.31;100.00;100247.25;5063027;28;20209;-70
2023/12/17 07:43:59;;;;;;;31.50;23.55;;;;;;;-0.27;100.00;100248.81;5082284;28;20196;-69
2023/12/17 07:46:26;;;;;;;30.77;25.13;;;;;;;-0.38;100.00;100248.53;5079583;28;20545;-69
2023/12/17 07:48:52;;;;;;;26.35;23.55;;;;;;;-0.23;100.00;100249.53;5082439;28;20269;-69
2023/12/17 07:51:21;;;;;;;28.88;25.13;;;;;;;-0.24;100.00;100254.00;5064858;28;20717;-69
2023/12/17 07:53:47;;;;;;;26.98;23.73;;;;;;;-0.29;100.00;100241.84;5082116;28;20196;-69
2023/12/17 07:56:14;;;;;;;27.48;23.05;;;;;;;-0.35;100.00;100251.03;5080334;28;20295;-69
2023/12/17 07:58:40;;;;;;;28.38;25.13;;;;;;;-0.21;100.00;100247.66;5079327;28;20284;-72
2023/12/17 08:01:09;;;;;;;33.10;26.02;;;;;;;-0.31;100.00;100239.28;5081239;28;20559;-69
2023/12/17 08:03:35;;;;;;;28.30;25.20;;;;;;;-0.30;100.00;100235.69;5080648;28;20297;-69
2023/12/17 08:06:02;;;;;;;27.35;23.80;;;;;;;-0.26;100.00;100241.72;5081485;28;20282;-70
2023/12/17 08:08:30;;;;;;;29.40;25.35;;;;;;;-0.24;100.00;100240.69;5062582;28;20224;-68
2023/12/17 08:10:56;;;;;;;27.35;23.42;;;;;;;-0.17;100.00;100244.75;5081306;28;20192;-67
2023/12/17 08:13:23;;;;;;;29.63;24.55;;;;;;;0.02;100.00;100243.78;5076654;28;20199;-68
2023/12/17 08:15:49;;;;;;;29.80;25.45;;;;;;;-0.02;100.00;100254.63;5077807;28;20235;-68
2023/12/17 08:18:19;;;;;;;27.95;25.15;;;;;;;0.05;100.00;100246.28;5078413;28;20199;-68
2023/12/17 08:20:45;;;;;;;24.35;21.85;;;;;;;-0.01;100.00;100243.03;5061527;28;20672;-68
2023/12/17 08:23:12;;;;;;;28.48;25.42;;;;;;;0.02;100.00;100244.63;5079514;28;20659;-68
2023/12/17 08:25:40;;;;;;;27.13;23.98;;;;;;;-0.05;100.00;100246.78;5078908;28;20203;-68
2023/12/17 08:28:07;;;;;;;28.00;25.00;;;;;;;-0.07;100.00;100246.00;5078353;28;20306;-68
2023/12/17 08:30:33;;;;;;;25.38;22.65;;;;;;;0.01;100.00;100253.56;5078430;28;20255;-68
2023/12/17 08:33:00;;;;;;;27.27;24.48;;;;;;;0.07;100.00;100253.25;5078806;28;20670;-68
2023/12/17 08:35:26;;;;;;;24.10;21.70;;;;;;;0.21;100.00;100249.84;5078517;28;20207;-68
2023/12/17 08:37:59;;;;;;;26.13;23.52;;;;;;;0.32;100.00;100247.47;5056151;28;20206;-68
2023/12/17 08:40:26;;;;;;;25.08;22.55;;;;;;;0.34;100.00;100250.91;5073154;28;20191;-68
2023/12/17 08:42:56;;;;;;;26.00;23.38;;;;;;;0.38;100.00;100243.59;5056756;28;20691;-68
2023/12/17 08:45:22;;;;;;;26.30;23.67;;;;;;;0.48;100.00;100242.16;5073641;28;20212;-67
2023/12/17 08:47:49;;;;;;;23.77;21.27;;;;;;;0.52;100.00;100233.94;5076173;28;20216;-68
2023/12/17 08:50:15;;;;;;;23.42;20.90;;;;;;;0.63;100.00;100231.53;5068976;28;20219;-68
2023/12/17 08:52:42;;;;;;;22.42;20.15;;;;;;;1.05;100.00;100232.69;5073739;28;20203;-68
2023/12/17 08:55:09;;;;;;;20.10;18.00;;;;;;;1.51;97.18;100225.53;5076291;28;20200;-68
2023/12/17 08:57:35;;;;;;;17.15;15.55;;;;;;;2.05;93.45;100224.97;5077193;28;20258;-68
2023/12/17 09:00:04;;;;;;;14.80;13.40;;;;;;;2.44;90.69;100227.81;5073724;28;20211;-68
2023/12/17 09:02:31;;;;;;;13.43;12.23;;;;;;;2.55;88.70;100228.00;5077416;28;20554;-68
2023/12/17 09:04:59;;;;;;;13.25;12.10;;;;;;;2.85;86.76;100235.03;5076989;28;20198;-68
2023/12/17 09:07:26;;;;;;;11.73;10.73;;;;;;;3.39;85.45;100233.19;5073843;28;20196;-68
2023/12/17 09:09:52;;;;;;;12.57;11.43;;;;;;;3.95;83.18;100229.31;5075360;28;20831;-69
2023/12/17 09:12:20;;;;;;;12.18;11.07;;;;;;;4.10;80.29;100234.59;5077378;28;20777;-67
2023/12/17 09:14:47;;;;;;;10.88;9.98;;;;;;;4.67;78.35;100218.88;5071939;28;20202;-68
2023/12/17 09:17:15;;;;;;;10.68;9.77;;;;;;;4.55;77.52;100220.59;5076381;28;20200;-68
2023/12/17 09:19:41;;;;;;;11.13;10.23;;;;;;;4.26;78.11;100220.00;5059913;28;20199;-67
2023/12/17 09:22:08;;;;;;;11.35;10.35;;;;;;;4.43;77.30;100224.19;5075142;28;20205;-68
2023/12/17 09:24:35;;;;;;;8.95;8.15;;;;;;;5.62;80.27;100213.50;5073598;28;20228;-70
2023/12/17 09:27:02;;;;;;;10.38;9.48;;;;;;;5.52;74.41;100214.34;5072288;28;20715;-68
2023/12/17 09:29:28;;;;;;;9.82;9.05;;;;;;;5.46;73.23;100215.66;5069335;28;20251;-69
2023/12/17 09:31:55;;;;;;;10.40;9.50;;;;;;;5.42;73.91;100211.50;5074399;28;20220;-68
2023/12/17 09:34:23;;;;;;;10.57;9.68;;;;;;;5.98;70.49;100203.63;5058766;28;20218;-69
2023/12/17 09:36:49;;;;;;;10.05;9.15;;;;;;;6.19;70.17;100206.44;5056914;28;20198;-68
2023/12/17 09:39:17;;;;;;;9.68;8.77;;;;;;;6.01;69.98;100209.63;5056594;28;20225;-68
2023/12/17 09:41:43;;;;;;;8.40;7.80;;;;;;;6.13;69.86;100215.00;5069479;28;20208;-68
2023/12/17 09:44:10;;;;;;;9.93;9.13;;;;;;;6.20;69.67;100214.38;5069554;28;20194;-68
2023/12/17 09:46:36;;;;;;;9.15;8.45;;;;;;;6.61;68.47;100215.63;5075903;28;20219;-68
2023/12/17 09:49:03;;;;;;;8.73;8.02;;;;;;;7.01;67.11;100224.88;5075282;28;20212;-69
2023/12/17 09:51:37;;;;;;;8.65;7.95;;;;;;;7.48;65.67;100209.28;5071289;28;20200;-69
2023/12/17 09:54:04;;;;;;;8.50;7.70;;;;;;;7.78;64.36;100210.41;5076814;27;20197;-69
2023/12/17 09:56:31;;;;;;;8.38;7.50;;;;;;;7.80;64.02;100214.63;5076023;28;20204;-69
2023/12/17 09:58:57;;;;;;;8.77;8.07;;;;;;;7.60;65.29;100210.09;5074295;28;20198;-69
2023/12/17 10:01:24;;;;;;;8.23;7.47;;;;;;;7.47;64.86;100212.13;5073040;28;20740;-69
2023/12/17 10:03:51;;;;;;;9.30;8.50;;;;;;;7.63;64.70;100207.16;5076363;28;20239;-69
2023/12/17 10:06:19;;;;;;;10.00;9.10;;;;;;;6.89;66.42;100198.94;5058417;28;20651;-69
2023/12/17 10:08:47;;;;;;;10.25;8.88;;;;;;;6.98;68.37;100205.41;5059190;28;20300;-69
2023/12/17 10:11:13;;;;;;;9.35;8.55;;;;;;;8.05;64.98;100187.31;5058401;28;20224;-69
2023/12/17 10:13:40;;;;;;;8.32;7.72;;;;;;;7.34;66.12;100193.44;5078616;28;20235;-69
2023/12/17 10:16:07;;;;;;;9.85;9.05;;;;;;;6.96;67.32;100188.53;5072298;28;20207;-68
2023/12/17 10:18:36;;;;;;;9.55;8.73;;;;;;;6.75;68.41;100183.09;5076910;28;20248;-69
2023/12/17 10:21:04;;;;;;;9.75;8.95;;;;;;;6.50;69.16;100188.75;5094291;28;20208;-69
2023/12/17 10:23:47;;;;;;;9.75;8.95;;;;;;;6.83;69.25;100179.75;5073668;28;20214;-68
2023/12/17 10:26:13;;;;;;;9.30;8.40;;;;;;;7.03;67.76;100171.75;5076889;28;20205;-69
2023/12/17 10:28:44;;;;;;;9.70;8.88;;;;;;;7.10;67.89;100168.56;5076932;28;20216;-69
2023/12/17 10:31:11;;;;;;;8.57;7.88;;;;;;;8.11;65.22;100158.09;5078030;28;20203;-69
2023/12/17 10:33:44;;;;;;;8.05;7.45;;;;;;;7.87;63.33;100161.06;5074737;28;20326;-69
2023/12/17 10:36:11;;;;;;;9.30;8.50;;;;;;;7.41;65.40;100171.25;5079132;28;20202;-69
2023/12/17 10:38:39;;;;;;;9.23;8.52;;;;;;;7.65;65.10;100167.44;5076145;28;20657;-69
2023/12/17 10:41:07;;;;;;;8.55;7.93;;;;;;;7.83;64.97;100160.47;5072608;28;20299;-69
2023/12/17 10:43:34;;;;;;;8.65;7.95;;;;;;;8.17;64.53;100146.75;5074307;28;20196;-69
2023/12/17 10:46:01;;;;;;;8.93;8.00;;;;;;;8.08;63.01;100154.69;5076118;28;20333;-69
2023/12/17 10:48:28;;;;;;;8.20;7.50;;;;;;;8.28;63.53;100143.97;5077152;28;20766;-70
2023/12/17 10:50:55;;;;;;;7.88;7.28;;;;;;;8.85;61.25;100148.72;5077013;28;20200;-69
2023/12/17 10:53:22;;;;;;;8.10;7.50;;;;;;;8.87;61.42;100138.63;5077386;28;20197;-69
2023/12/17 10:55:48;;;;;;;8.60;7.80;;;;;;;8.59;61.93;100132.19;5076885;28;20204;-69
2023/12/17 10:58:19;;;;;;;8.40;7.72;;;;;;;8.45;62.71;100124.44;5075966;28;20206;-69
2023/12/17 11:00:46;;;;;;;8.68;7.97;;;;;;;8.73;61.32;100125.53;5075948;28;20210;-69
2023/12/17 11:03:13;;;;;;;9.07;8.38;;;;;;;8.82;61.33;100123.84;5076480;28;20719;-69
2023/12/17 11:05:54;;;;;;;8.63;7.82;;;;;;;8.96;60.76;100126.13;5075406;28;20204;-70
2023/12/17 11:08:23;;;;;;;9.10;8.30;;;;;;;8.99;59.29;100117.75;5080165;28;20314;-70